createdAt,value
2022-08-29T00:00:08.666Z,100925.19
2022-08-29T00:02:52.479Z,100921.25
2022-08-29T00:05:24.386Z,100925.63
2022-08-29T00:07:55.793Z,100925.84
2022-08-29T00:10:25.709Z,100931.03
2022-08-29T00:12:54.228Z,100925.03
2022-08-29T00:15:26.140Z,100925.16
2022-08-29T00:17:54.783Z,100928.50
2022-08-29T00:20:33.991Z,100930.81
2022-08-29T00:23:06.507Z,100934.81
2022-08-29T00:25:33.987Z,100935.16
2022-08-29T00:28:06.845Z,100937.94
2022-08-29T00:30:35.473Z,100937.13
2022-08-29T00:33:06.594Z,100933.53
2022-08-29T00:35:40.600Z,100944.06
2022-08-29T00:38:11.314Z,100931.03
2022-08-29T00:40:43.191Z,100930.34
2022-08-29T00:43:25.165Z,100931.59
2022-08-29T00:46:11.518Z,100923.44
2022-08-29T00:48:39.997Z,100922.38
2022-08-29T00:51:13.029Z,100917.94
2022-08-29T00:53:42.565Z,100919.97
2022-08-29T00:56:10.295Z,100916.41
2022-08-29T00:58:41.830Z,100915.13
2022-08-29T01:01:12.512Z,100913.56
2022-08-29T01:03:41.023Z,100919.63
2022-08-29T01:06:16.250Z,100921.41
2022-08-29T01:08:44.855Z,100916.28
2022-08-29T01:11:31.760Z,100922.50
2022-08-29T01:14:02.299Z,100940.22
2022-08-29T01:16:30.209Z,100937.00
2022-08-29T01:19:00.888Z,100947.34
2022-08-29T01:21:38.907Z,100951.84
2022-08-29T01:24:16.520Z,100947.78
2022-08-29T01:26:48.439Z,100936.13
2022-08-29T01:29:18.992Z,100941.69
2022-08-29T01:31:57.239Z,100935.66
2022-08-29T01:34:26.936Z,100935.50
2022-08-29T01:36:59.977Z,100923.28
2022-08-29T01:39:29.636Z,100925.25
2022-08-29T01:42:01.125Z,100913.53
2022-08-29T01:44:31.788Z,100901.28
2022-08-29T01:47:03.644Z,100902.78
2022-08-29T01:49:38.734Z,100907.69
2022-08-29T01:52:12.936Z,100922.09
2022-08-29T01:54:42.150Z,100922.50
2022-08-29T01:57:13.248Z,100914.81
2022-08-29T01:59:41.984Z,100920.91
2022-08-29T02:02:11.444Z,100932.13
2022-08-29T02:04:45.603Z,100924.25
2022-08-29T02:07:14.288Z,100926.91
2022-08-29T02:09:45.534Z,100925.34
2022-08-29T02:12:14.601Z,100925.91
2022-08-29T02:14:47.130Z,100915.81
2022-08-29T02:17:16.940Z,100916.28
2022-08-29T02:19:47.755Z,100903.88
2022-08-29T02:22:15.972Z,100910.09
2022-08-29T02:24:46.567Z,100900.09
2022-08-29T02:27:17.549Z,100904.41
2022-08-29T02:29:47.004Z,100897.94
2022-08-29T02:32:17.334Z,100903.94
2022-08-29T02:34:48.577Z,100898.44
2022-08-29T02:37:19.779Z,100895.22
2022-08-29T02:39:51.915Z,100892.63
2022-08-29T02:42:20.063Z,100905.00
2022-08-29T02:44:50.002Z,100892.72
2022-08-29T02:47:18.986Z,100898.22
2022-08-29T02:49:49.337Z,100899.22
2022-08-29T02:52:17.774Z,100903.75
2022-08-29T02:54:45.358Z,100895.75
2022-08-29T02:57:15.826Z,100898.94
2022-08-29T02:59:46.745Z,100902.78
2022-08-29T03:02:17.409Z,100897.38
2022-08-29T03:04:46.440Z,100901.28
2022-08-29T03:07:17.069Z,100884.72
2022-08-29T03:09:44.964Z,100897.59
2022-08-29T03:12:15.740Z,100897.72
2022-08-29T03:14:47.112Z,100899.34
2022-08-29T03:17:14.848Z,100904.84
2022-08-29T03:19:42.874Z,100901.09
2022-08-29T03:22:10.763Z,100914.78
2022-08-29T03:24:39.466Z,100905.03
2022-08-29T03:27:10.922Z,100901.63
2022-08-29T03:29:38.638Z,100901.25
2022-08-29T03:32:08.902Z,100907.56
2022-08-29T03:34:39.977Z,100900.81
2022-08-29T03:37:09.985Z,100913.97
2022-08-29T03:39:40.678Z,100915.38
2022-08-29T03:42:09.262Z,100921.56
2022-08-29T03:44:37.437Z,100920.22
2022-08-29T03:47:06.003Z,100921.13
2022-08-29T03:49:37.234Z,100921.00
2022-08-29T03:52:10.908Z,100928.41
2022-08-29T03:54:41.349Z,100929.75
2022-08-29T03:57:35.254Z,100933.19
2022-08-29T04:00:13.954Z,100947.88
2022-08-29T04:02:41.768Z,100943.91
2022-08-29T04:05:11.076Z,100939.31
2022-08-29T04:08:01.702Z,100953.19
2022-08-29T04:10:52.730Z,100956.16
2022-08-29T04:13:20.155Z,100972.25
2022-08-29T04:15:47.960Z,100970.97
2022-08-29T04:18:21.324Z,100975.31
2022-08-29T04:20:52.590Z,100985.50
2022-08-29T04:23:21.214Z,100997.63
2022-08-29T04:26:02.885Z,101006.78
2022-08-29T04:28:43.551Z,101010.81
2022-08-29T04:31:20.432Z,101015.25
2022-08-29T04:33:51.129Z,101022.81
2022-08-29T04:36:19.090Z,101028.59
2022-08-29T04:38:49.198Z,101023.44
2022-08-29T04:41:16.781Z,101028.78
2022-08-29T04:43:47.662Z,101023.44
2022-08-29T04:46:23.977Z,101027.19
2022-08-29T04:48:53.243Z,101032.03
2022-08-29T04:51:21.156Z,101031.22
2022-08-29T04:53:50.338Z,101038.47
2022-08-29T04:56:18.689Z,101039.78
2022-08-29T04:58:47.486Z,101039.63
2022-08-29T05:01:16.851Z,101043.00
2022-08-29T05:03:46.594Z,101048.06
2022-08-29T05:06:15.912Z,101041.06
2022-08-29T05:08:48.267Z,101038.78
2022-08-29T05:11:26.434Z,101042.59
2022-08-29T05:14:00.108Z,101051.47
2022-08-29T05:16:32.052Z,101058.75
2022-08-29T05:19:05.912Z,101059.09
2022-08-29T05:21:36.593Z,101059.88
2022-08-29T05:24:08.050Z,101063.47
2022-08-29T05:26:38.181Z,101055.34
2022-08-29T05:29:08.399Z,101052.88
2022-08-29T05:31:38.494Z,101053.09
2022-08-29T05:34:14.054Z,101050.91
2022-08-29T05:37:02.460Z,101047.63
2022-08-29T05:39:30.308Z,101050.34
2022-08-29T05:42:01.226Z,101053.19
2022-08-29T05:44:34.317Z,101054.72
2022-08-29T05:47:06.513Z,101055.81
2022-08-29T05:49:36.008Z,101058.94
2022-08-29T05:52:10.612Z,101058.09
2022-08-29T05:54:41.922Z,101046.97
2022-08-29T05:57:19.416Z,101050.00
2022-08-29T05:59:50.126Z,101039.13
2022-08-29T06:02:18.263Z,101029.84
2022-08-29T06:04:46.343Z,101038.84
2022-08-29T06:07:21.900Z,101041.41
2022-08-29T06:10:03.685Z,101046.16
2022-08-29T06:12:35.081Z,101045.19
2022-08-29T06:15:04.856Z,101043.00
2022-08-29T06:17:35.664Z,101048.97
2022-08-29T06:20:10.086Z,101041.81
2022-08-29T06:22:41.247Z,101045.47
2022-08-29T06:25:37.383Z,101048.66
2022-08-29T06:28:05.633Z,101052.47
2022-08-29T06:30:36.509Z,101061.94
2022-08-29T06:33:10.285Z,101059.13
2022-08-29T06:35:40.771Z,101059.66
2022-08-29T06:38:13.317Z,101065.84
2022-08-29T06:40:44.495Z,101060.47
2022-08-29T06:43:17.856Z,101068.75
2022-08-29T06:45:46.907Z,101066.94
2022-08-29T06:48:18.400Z,101064.09
2022-08-29T06:50:48.509Z,101069.78
2022-08-29T06:53:29.832Z,101072.31
2022-08-29T06:56:25.017Z,101071.97
2022-08-29T06:58:54.151Z,101073.25
2022-08-29T07:01:22.065Z,101077.66
2022-08-29T07:03:49.960Z,101081.00
2022-08-29T07:06:19.971Z,101079.00
2022-08-29T07:08:55.429Z,101075.28
2022-08-29T07:11:28.227Z,101076.16
2022-08-29T07:13:56.412Z,101070.72
2022-08-29T07:16:23.988Z,101078.22
2022-08-29T07:19:02.334Z,101083.88
2022-08-29T07:21:30.303Z,101082.97
2022-08-29T07:24:00.685Z,101085.16
2022-08-29T07:26:29.693Z,101087.47
2022-08-29T07:28:59.303Z,101083.19
2022-08-29T07:31:30.984Z,101088.16
2022-08-29T07:34:02.225Z,101086.44
2022-08-29T07:36:34.637Z,101084.81
2022-08-29T07:39:04.330Z,101090.56
2022-08-29T07:41:32.390Z,101083.44
2022-08-29T07:44:00.166Z,101082.28
2022-08-29T07:46:27.643Z,101085.75
2022-08-29T07:48:58.395Z,101084.25
2022-08-29T07:51:26.799Z,101087.34
2022-08-29T07:53:54.680Z,101076.47
2022-08-29T07:56:25.737Z,101078.44
2022-08-29T07:58:55.803Z,101085.19
2022-08-29T08:01:23.584Z,101077.50
2022-08-29T08:03:51.533Z,101078.25
2022-08-29T08:06:19.812Z,101084.34
2022-08-29T08:08:47.396Z,101080.94
2022-08-29T08:11:15.110Z,101088.28
2022-08-29T08:13:42.793Z,101081.19
2022-08-29T08:16:11.521Z,101080.00
2022-08-29T08:18:44.223Z,101072.78
2022-08-29T08:21:11.896Z,101072.09
2022-08-29T08:23:41.791Z,101079.31
2022-08-29T08:26:11.969Z,101078.63
2022-08-29T08:28:45.207Z,101086.34
2022-08-29T08:31:15.171Z,101076.94
2022-08-29T08:33:42.897Z,101095.59
2022-08-29T08:36:16.361Z,101091.72
2022-08-29T08:38:43.875Z,101096.06
2022-08-29T08:41:30.159Z,101095.66
2022-08-29T08:43:58.852Z,101087.31
2022-08-29T08:46:43.151Z,101092.03
2022-08-29T08:49:23.361Z,101094.22
2022-08-29T08:51:53.829Z,101093.13
2022-08-29T08:54:26.131Z,101096.22
2022-08-29T08:57:10.376Z,101091.94
2022-08-29T08:59:45.496Z,101102.38
2022-08-29T09:02:31.512Z,101096.31
2022-08-29T09:05:18.639Z,101096.97
2022-08-29T09:08:01.757Z,101095.25
2022-08-29T09:11:16.613Z,101099.34
2022-08-29T09:13:56.745Z,101101.19
2022-08-29T09:16:29.332Z,101097.00
2022-08-29T09:18:59.686Z,101094.09
2022-08-29T09:21:42.884Z,101095.41
2022-08-29T09:24:11.860Z,101090.75
2022-08-29T09:26:44.773Z,101090.81
2022-08-29T09:29:14.007Z,101094.03
2022-08-29T09:31:44.859Z,101102.31
2022-08-29T09:34:13.315Z,101094.94
2022-08-29T09:36:45.905Z,101091.34
2022-08-29T09:39:18.510Z,101090.75
2022-08-29T09:41:51.753Z,101087.69
2022-08-29T09:44:29.183Z,101088.41
2022-08-29T09:47:04.302Z,101087.34
2022-08-29T09:50:02.425Z,101085.75
2022-08-29T09:52:30.069Z,101074.94
2022-08-29T09:54:57.892Z,101085.44
2022-08-29T09:57:26.795Z,101080.91
2022-08-29T10:00:13.783Z,101081.03
2022-08-29T10:02:48.493Z,101091.59
2022-08-29T10:05:31.135Z,101071.81
2022-08-29T10:08:05.118Z,101080.31
2022-08-29T10:10:38.017Z,101076.69
2022-08-29T10:13:20.408Z,101081.75
2022-08-29T10:15:54.094Z,101077.69
2022-08-29T10:19:01.873Z,101080.72
2022-08-29T10:21:34.875Z,101081.53
2022-08-29T10:24:20.569Z,101086.97
2022-08-29T10:26:57.274Z,101094.28
2022-08-29T10:29:31.750Z,101088.91
2022-08-29T10:32:27.032Z,101094.97
2022-08-29T10:35:13.862Z,101087.31
2022-08-29T10:38:00.234Z,101080.84
2022-08-29T10:40:32.785Z,101077.44
2022-08-29T10:43:08.185Z,101084.91
2022-08-29T10:45:45.154Z,101074.81
2022-08-29T10:48:27.449Z,101075.16
2022-08-29T10:51:24.532Z,101075.97
2022-08-29T10:53:53.516Z,101074.03
2022-08-29T10:56:47.248Z,101075.34
2022-08-29T10:59:24.544Z,101075.22
2022-08-29T11:01:57.824Z,101070.59
2022-08-29T11:04:30.397Z,101073.22
2022-08-29T11:07:21.179Z,101073.03
2022-08-29T11:10:02.543Z,101079.47
2022-08-29T11:12:59.972Z,101080.94
2022-08-29T11:15:29.152Z,101077.53
2022-08-29T11:18:06.218Z,101080.09
2022-08-29T11:20:35.959Z,101088.78
2022-08-29T11:23:13.778Z,101088.78
2022-08-29T11:25:42.091Z,101073.41
2022-08-29T11:28:10.301Z,101077.69
2022-08-29T11:30:48.219Z,101074.41
2022-08-29T11:33:28.350Z,101081.47
2022-08-29T11:35:55.961Z,101065.09
2022-08-29T11:38:44.338Z,101073.13
2022-08-29T11:41:30.829Z,101063.53
2022-08-29T11:44:04.679Z,101058.97
2022-08-29T11:46:35.405Z,101061.41
2022-08-29T11:49:21.663Z,101058.31
2022-08-29T11:52:22.303Z,101045.66
2022-08-29T11:54:54.842Z,101044.56
2022-08-29T11:57:34.285Z,101052.50
2022-08-29T12:00:05.309Z,101040.97
2022-08-29T12:02:36.858Z,101033.66
2022-08-29T12:05:07.951Z,101032.13
2022-08-29T12:07:36.807Z,101024.94
2022-08-29T12:10:24.755Z,101025.13
2022-08-29T12:12:53.765Z,101020.47
2022-08-29T12:15:27.351Z,101017.16
2022-08-29T12:18:04.476Z,101020.03
2022-08-29T12:20:41.699Z,101003.03
2022-08-29T12:23:15.673Z,101007.06
2022-08-29T12:26:09.667Z,101002.59
2022-08-29T12:28:49.317Z,100993.25
2022-08-29T12:31:35.625Z,100986.94
2022-08-29T12:34:23.475Z,100984.53
2022-08-29T12:36:56.969Z,100981.41
2022-08-29T12:39:39.812Z,100981.94
2022-08-29T12:42:25.322Z,100983.09
2022-08-29T12:45:00.703Z,100971.63
2022-08-29T12:47:34.103Z,100968.44
2022-08-29T12:50:10.192Z,100965.16
2022-08-29T12:52:40.016Z,100961.22
2022-08-29T12:55:26.807Z,100965.44
2022-08-29T12:58:02.165Z,100955.13
2022-08-29T13:00:33.691Z,100956.03
2022-08-29T13:03:04.561Z,100943.66
2022-08-29T13:05:38.639Z,100948.09
2022-08-29T13:08:11.025Z,100944.50
2022-08-29T13:10:57.558Z,100935.81
2022-08-29T13:13:25.449Z,100941.22
2022-08-29T13:15:53.876Z,100927.91
2022-08-29T13:18:24.748Z,100936.41
2022-08-29T13:21:10.644Z,100927.44
2022-08-29T13:23:48.230Z,100930.38
2022-08-29T13:26:20.258Z,100918.41
2022-08-29T13:28:51.326Z,100923.72
2022-08-29T13:31:19.106Z,100915.75
2022-08-29T13:33:49.023Z,100906.28
2022-08-29T13:36:35.295Z,100903.34
2022-08-29T13:39:17.721Z,100903.25
2022-08-29T13:41:50.993Z,100903.81
2022-08-29T13:44:20.725Z,100907.53
2022-08-29T13:46:48.549Z,100898.94
2022-08-29T13:49:23.996Z,100905.03
2022-08-29T13:51:51.570Z,100898.06
2022-08-29T13:54:21.694Z,100898.91
2022-08-29T13:56:56.743Z,100892.06
2022-08-29T14:02:10.673Z,100878.97
2022-08-29T14:04:48.525Z,100874.25
2022-08-29T14:07:18.106Z,100886.50
2022-08-29T14:09:50.045Z,100876.13
2022-08-29T14:12:18.641Z,100875.25
2022-08-29T14:14:47.505Z,100875.31
2022-08-29T14:17:26.608Z,100868.88
2022-08-29T14:19:59.511Z,100868.19
2022-08-29T14:22:28.131Z,100872.94
2022-08-29T14:33:43.557Z,100867.38
2022-08-29T14:36:19.006Z,100874.88
2022-08-29T14:38:52.343Z,100864.06
2022-08-29T14:41:23.039Z,100866.41
2022-08-29T14:43:54.947Z,100862.81
2022-08-29T14:46:27.770Z,100865.50
2022-08-29T14:48:55.929Z,100866.69
2022-08-29T14:51:31.261Z,100859.03
2022-08-29T14:54:01.203Z,100865.78
2022-08-29T14:56:47.642Z,100852.69
2022-08-29T14:59:21.955Z,100858.59
2022-08-29T15:01:57.225Z,100856.69
2022-08-29T15:04:36.737Z,100859.16
2022-08-29T15:07:15.424Z,100855.16
2022-08-29T15:09:48.971Z,100855.75
2022-08-29T15:12:22.843Z,100861.53
2022-08-29T15:14:56.872Z,100857.81
2022-08-29T15:17:30.945Z,100853.44
2022-08-29T15:23:04.821Z,100853.09
2022-08-29T15:25:35.665Z,100845.97
2022-08-29T15:28:13.122Z,100847.94
2022-08-29T15:30:43.503Z,100845.38
2022-08-29T15:33:18.148Z,100839.97
2022-08-29T15:35:52.109Z,100843.59
2022-08-29T15:38:26.493Z,100835.34
2022-08-29T15:41:03.154Z,100839.13
2022-08-29T15:43:39.996Z,100836.72
2022-08-29T15:46:23.245Z,100837.53
2022-08-29T15:49:01.123Z,100838.41
2022-08-29T15:51:37.483Z,100835.97
2022-08-29T15:54:11.396Z,100825.91
2022-08-29T15:56:47.899Z,100831.44
2022-08-29T15:59:41.463Z,100831.63
2022-08-29T16:02:28.217Z,100826.22
2022-08-29T16:05:05.073Z,100819.00
2022-08-29T16:07:38.300Z,100826.41
2022-08-29T16:10:13.118Z,100820.44
2022-08-29T16:12:50.427Z,100828.06
2022-08-29T16:15:27.965Z,100823.59
2022-08-29T16:18:02.542Z,100824.50
2022-08-29T16:20:38.042Z,100824.09
2022-08-29T16:23:07.165Z,100818.50
2022-08-29T16:25:41.411Z,100821.25
2022-08-29T16:28:15.326Z,100819.25
2022-08-29T16:30:45.862Z,100814.03
2022-08-29T16:33:19.807Z,100814.56
2022-08-29T16:35:55.935Z,100809.28
2022-08-29T16:38:32.264Z,100812.09
2022-08-29T16:41:10.446Z,100802.88
2022-08-29T16:43:42.407Z,100800.41
2022-08-29T16:46:21.974Z,100798.06
2022-08-29T16:48:55.582Z,100802.84
2022-08-29T16:51:32.022Z,100795.66
2022-08-29T16:54:05.459Z,100806.09
2022-08-29T16:56:35.150Z,100801.28
2022-08-29T16:59:04.857Z,100796.38
2022-08-29T17:01:37.904Z,100801.13
2022-08-29T17:04:10.868Z,100794.00
2022-08-29T17:06:48.190Z,100794.78
2022-08-29T17:09:17.235Z,100798.69
2022-08-29T17:11:48.327Z,100787.00
2022-08-29T17:14:20.339Z,100794.84
2022-08-29T17:16:53.958Z,100792.81
2022-08-29T17:19:22.338Z,100789.50
2022-08-29T17:21:53.840Z,100801.91
2022-08-29T17:24:23.844Z,100809.28
2022-08-29T17:26:59.380Z,100807.63
2022-08-29T17:29:34.353Z,100816.44
2022-08-29T17:32:06.481Z,100809.22
2022-08-29T17:34:34.225Z,100814.41
2022-08-29T17:37:04.388Z,100809.13
2022-08-29T17:39:39.769Z,100825.78
2022-08-29T17:42:12.218Z,100820.28
2022-08-29T17:44:44.539Z,100821.91
2022-08-29T17:47:17.188Z,100824.97
2022-08-29T17:49:50.611Z,100826.47
2022-08-29T17:52:21.640Z,100832.09
2022-08-29T17:54:55.044Z,100844.56
2022-08-29T17:57:26.222Z,100850.03
2022-08-29T17:59:56.950Z,100848.59
2022-08-29T18:02:32.110Z,100853.75
2022-08-29T18:05:17.997Z,100858.59
2022-08-29T18:07:52.400Z,100861.00
2022-08-29T18:10:25.879Z,100865.44
2022-08-29T18:12:57.188Z,100867.88
2022-08-29T18:15:35.530Z,100865.81
2022-08-29T18:18:06.235Z,100878.38
2022-08-29T18:20:38.238Z,100877.41
2022-08-29T18:23:16.863Z,100876.69
2022-08-29T18:25:48.061Z,100887.34
2022-08-29T18:28:19.259Z,100887.78
2022-08-29T18:30:53.027Z,100884.28
2022-08-29T18:33:28.457Z,100887.09
2022-08-29T18:36:10.587Z,100893.38
2022-08-29T18:38:39.141Z,100898.94
2022-08-29T18:41:09.140Z,100900.91
2022-08-29T18:43:36.741Z,100904.78
2022-08-29T18:46:09.637Z,100914.44
2022-08-29T18:48:37.497Z,100921.22
2022-08-29T18:51:10.936Z,100913.34
2022-08-29T18:53:41.671Z,100922.25
2022-08-29T18:56:17.124Z,100929.94
2022-08-29T18:58:46.947Z,100933.56
2022-08-29T19:01:27.839Z,100937.16
2022-08-29T19:03:59.915Z,100945.06
2022-08-29T19:06:27.534Z,100954.50
2022-08-29T19:09:00.045Z,100955.00
2022-08-29T19:11:30.103Z,100963.91
2022-08-29T19:14:01.415Z,100962.63
2022-08-29T19:16:30.172Z,100964.50
2022-08-29T19:19:01.371Z,100965.44
2022-08-29T19:21:31.294Z,100960.63
2022-08-29T19:24:01.897Z,100968.81
2022-08-29T19:26:35.960Z,100962.19
2022-08-29T19:29:14.108Z,100960.19
2022-08-29T19:31:42.221Z,100954.13
2022-08-29T19:34:15.608Z,100952.69
2022-08-29T19:36:48.711Z,100945.59
2022-08-29T19:39:22.423Z,100951.16
2022-08-29T19:41:56.292Z,100957.56
2022-08-29T19:44:27.550Z,100960.09
2022-08-29T19:46:58.527Z,100958.28
2022-08-29T19:49:29.430Z,100959.25
2022-08-29T19:51:59.776Z,100956.69
2022-08-29T19:54:35.348Z,100962.22
2022-08-29T19:57:05.891Z,100966.59
2022-08-29T19:59:35.554Z,100967.63
2022-08-29T20:02:08.788Z,100962.53
2022-08-29T20:04:44.067Z,100971.38
2022-08-29T20:07:17.174Z,100970.41
2022-08-29T20:09:45.571Z,100975.22
2022-08-29T20:12:18.349Z,100976.09
2022-08-29T20:14:50.992Z,100977.94
2022-08-29T20:17:23.949Z,100981.72
2022-08-29T20:19:51.561Z,100980.13
2022-08-29T20:22:20.640Z,100985.66
2022-08-29T20:24:53.549Z,100981.88
2022-08-29T20:27:24.253Z,100982.88
2022-08-29T20:29:52.120Z,100986.16
2022-08-29T20:32:19.876Z,100984.28
2022-08-29T20:34:53.178Z,100978.53
2022-08-29T20:37:25.948Z,100987.19
2022-08-29T20:39:56.727Z,100988.44
2022-08-29T20:42:30.851Z,100989.94
2022-08-29T20:45:01.319Z,100988.22
2022-08-29T20:47:31.646Z,100997.53
2022-08-29T20:50:01.972Z,101017.06
2022-08-29T20:52:34.763Z,101019.97
2022-08-29T20:55:07.873Z,101030.31
2022-08-29T20:57:41.412Z,101031.03
2022-08-29T21:00:10.280Z,101029.78
2022-08-29T21:03:01.652Z,101037.13
2022-08-29T21:05:44.857Z,101033.16
2022-08-29T21:08:16.805Z,101033.16
2022-08-29T21:10:48.282Z,101038.59
2022-08-29T21:13:20.571Z,101035.97
2022-08-29T21:15:54.521Z,101036.50
2022-08-29T21:18:27.244Z,101032.88
2022-08-29T21:20:58.731Z,101040.44
2022-08-29T21:23:29.375Z,101041.22
2022-08-29T21:26:03.673Z,101043.47
2022-08-29T21:28:33.487Z,101042.31
2022-08-29T21:31:08.168Z,101050.56
2022-08-29T21:33:42.689Z,101051.53
2022-08-29T21:36:18.700Z,101044.81
2022-08-29T21:38:51.558Z,101055.78
2022-08-29T21:41:22.243Z,101052.28
2022-08-29T21:43:53.100Z,101059.81
2022-08-29T21:46:25.762Z,101048.09
2022-08-29T21:48:56.505Z,101060.72
2022-08-29T21:51:27.843Z,101057.28
2022-08-29T21:53:58.778Z,101056.56
2022-08-29T21:56:30.894Z,101065.22
2022-08-29T21:58:59.047Z,101073.41
2022-08-29T22:01:33.545Z,101075.78
2022-08-29T22:04:01.848Z,101067.09
2022-08-29T22:06:35.723Z,101075.00
2022-08-29T22:09:03.787Z,101080.88
2022-08-29T22:11:37.339Z,101077.47
2022-08-29T22:14:06.747Z,101091.09
2022-08-29T22:16:37.532Z,101098.47
2022-08-29T22:19:09.070Z,101087.31
2022-08-29T22:21:47.031Z,101087.50
2022-08-29T22:24:17.680Z,101095.75
2022-08-29T22:26:45.358Z,101100.84
2022-08-29T22:29:16.197Z,101103.63
2022-08-29T22:31:49.852Z,101092.59
2022-08-29T22:34:26.238Z,101094.91
2022-08-29T22:36:59.219Z,101098.75
2022-08-29T22:39:29.887Z,101098.50
2022-08-29T22:42:00.620Z,101092.53
2022-08-29T22:47:27.346Z,101087.47
2022-08-29T22:50:01.110Z,101091.25
2022-08-29T22:52:29.116Z,101096.44
2022-08-29T22:54:59.433Z,101099.22
2022-08-29T22:57:29.416Z,101097.84
2022-08-29T23:00:00.048Z,101105.41
2022-08-29T23:02:29.315Z,101101.16
2022-08-29T23:05:00.231Z,101098.03
2022-08-29T23:07:33.803Z,101103.78
2022-08-29T23:10:03.557Z,101100.94
2022-08-29T23:12:36.774Z,101107.31
2022-08-29T23:15:11.388Z,101104.75
2022-08-29T23:17:39.596Z,101101.41
2022-08-29T23:20:12.830Z,101097.03
2022-08-29T23:22:43.336Z,101104.75
2022-08-29T23:25:14.800Z,101099.22
2022-08-29T23:27:45.195Z,101100.50
2022-08-29T23:30:20.844Z,101105.66
2022-08-29T23:32:51.427Z,101102.44
2022-08-29T23:35:21.783Z,101106.25
2022-08-29T23:37:54.908Z,101104.41
2022-08-29T23:40:22.866Z,101102.06
2022-08-29T23:42:51.646Z,101108.31
2022-08-29T23:45:24.916Z,101108.56
2022-08-29T23:47:52.611Z,101108.53
2022-08-29T23:50:23.533Z,101100.25
2022-08-29T23:52:51.074Z,101105.06
2022-08-29T23:55:21.381Z,101109.25
2022-08-29T23:57:51.755Z,101103.91
